Aérodrome :
LOGIN :

S'inscrire | Disclaimer

   EN    FR    IT 

 










Légende :    VFR   VFR Marginal   IFR   IFR Intensif   IFR Très Intensif
Visi : 
Plafond : 
>= 8 km
>= 3000ft
5 à 8 km
1000 à 3000 ft
1500m à 5 km
500 à 1000 ft
800 à 1500m
200 à 500 ft
< 800m
< 200 ft
Symboles :   Orages  Brouillard  Fortes neiges  Fortes précipitations  Vent > 20 kt
SIGMETs :   Divers  Orages  Givrage  Turbulence  Onde Orograph.  Cendres Volcan.







- Altitude de l'aérodrome : 7 ft
- Code IATA : XHE
- Voir les cartes d'approche


LFTH - Hyeres

DERNIER METAR :
  • 261930Z AUTO 23005KT 210V270 CAVOK 18/14 Q1010 NOSIG

METARs EXPIRÉS :
  • 261900Z AUTO VRB01KT CAVOK 18/14 Q1010 NOSIG
  • 261830Z AUTO 23008KT CAVOK 18/15 Q1010 NOSIG
  • 261800Z AUTO 24007KT CAVOK 18/14 Q1011 NOSIG
  • 261730Z AUTO 23006KT CAVOK 19/14 Q1011 NOSIG
  • 261700Z AUTO 23007KT CAVOK 19/15 Q1011 TEMPO VRB15G25KT -TSRA SCT040CB

TAF AMD TAF LFTH
Valide du 26 à 15h jusqu'au 27 à 15h UTC


261551Z 2615/2715 22012KT 9999 FEW045CB BKN070
PROB40
TEMPO 2616/2618 VRB15G25KT 5000 SHRA SCT040CB
PROB30
TEMPO 2616/2618 -TSRA
BECMG 2618/2620 VRB03KT CAVOK
BECMG 2707/2709 15013KT
BECMG 2709/2711 FEW030TCU
Pas de NOTAMs connus pour ce terrain.
1 SIGMET publié pour la FIR Marseille (LFMM) :
 
Turbulence forte
LFMM SIGMET 6 VALID 261900/262100 LFPW
LFMM MARSEILLE FIR/UIR SEV TURB FCST WI N4145 E00430 - N4200 E00430 - N4215 E00345 - N4345 E00445 - N4530 E00645 - N4145 E00430 FL260/340 STNR WKN=



MET'MAP, la Météo Aéronautique d'un coup d'oeil ! - Copyright ORBIFLY Décembre 2007 - Disclaimer

ORBIFLY MET'MAP TEAM :

Programmation & Développement : Alexandra Zaïnal
Conception & Développement : Baudouin d'Aumeries
Co-Programmation & Développement : Marc-Olivier Méhu
Soutien technique & logistique : Manuel Goepfert

Contact : metmap@orbifly.com




SOURCES & CREDITS :

   NOAA